Time;durP1;ratioP1;P1;durP2;ratioP2;P2;SDS_P1;SDS_P2;PMS_P1;PMS_P2;Temp;Humidity;BMP_temperature;BMP_pressure;BME280_temperature;BME280_humidity;BME280_pressure;Samples;Min_cycle;Max_cycle;Signal;HPM_P1;HPM_P2
2022/08/04 00:01:28;;;;;;;61.70;26.50;;;;;;;22.95;72.39;99007.71;25057;1315;3049735;-61
2022/08/04 00:04:25;;;;;;;45.90;20.10;;;;;;;22.80;72.84;99006.34;25101;1316;3052634;-62
2022/08/04 00:07:09;;;;;;;45.70;23.80;;;;;;;23.33;71.35;99000.77;25154;1315;3056423;-62
2022/08/04 00:09:49;;;;;;;51.00;23.40;;;;;;;23.67;70.37;99003.60;25100;1313;3057500;-61
2022/08/04 00:12:18;;;;;;;51.00;24.10;;;;;;;23.59;70.06;99004.14;25025;1315;3052582;-63
2022/08/04 00:14:49;;;;;;;44.70;24.70;;;;;;;23.39;70.50;99004.11;25074;1315;3026892;-62
2022/08/04 00:17:20;;;;;;;49.70;24.60;;;;;;;23.17;70.97;99003.20;25102;1315;3027051;-63
2022/08/04 00:19:53;;;;;;;50.10;26.40;;;;;;;22.98;71.60;99006.84;25091;1317;3027389;-64
2022/08/04 00:22:25;;;;;;;46.30;21.60;;;;;;;22.86;72.42;99009.55;25044;1315;3027153;-62
2022/08/04 00:24:55;;;;;;;48.50;25.00;;;;;;;23.26;71.89;99009.12;25086;1315;3026749;-61
2022/08/04 00:27:24;;;;;;;50.70;26.20;;;;;;;23.51;70.78;99008.87;25061;1313;3026627;-60
2022/08/04 00:29:53;;;;;;;51.90;26.20;;;;;;;23.52;70.73;99008.98;25101;1315;3026352;-61
2022/08/04 00:32:22;;;;;;;51.90;27.60;;;;;;;23.32;70.91;99008.30;25034;1313;3055262;-61
2022/08/04 00:34:51;;;;;;;51.80;27.60;;;;;;;23.20;71.28;99008.52;25068;1315;3026244;-61
2022/08/04 00:37:24;;;;;;;53.00;25.80;;;;;;;23.04;71.58;99008.15;25021;1316;3048403;-59
2022/08/04 00:39:53;;;;;;;46.20;23.90;;;;;;;22.79;72.90;99008.75;25105;1313;3026527;-60
2022/08/04 00:42:38;;;;;;;49.60;25.50;;;;;;;23.16;72.54;99004.26;25133;1315;3026667;-62
2022/08/04 00:45:27;;;;;;;49.50;26.60;;;;;;;23.57;70.93;99004.03;25119;1315;3057428;-60
2022/08/04 00:48:24;;;;;;;50.50;28.80;;;;;;;23.30;71.65;99007.56;25082;1315;3049600;-63
2022/08/04 00:51:12;;;;;;;63.80;30.20;;;;;;;22.97;72.78;99010.98;25101;1315;3057897;-60
2022/08/04 00:53:59;;;;;;;62.20;30.80;;;;;;;22.66;73.93;99017.65;25118;1315;3054020;-61
2022/08/04 00:57:03;;;;;;;46.30;23.70;;;;;;;22.40;75.35;99023.34;25100;1313;3070812;-62
2022/08/04 00:59:59;;;;;;;55.80;27.50;;;;;;;23.00;73.45;99024.84;25040;1315;3052205;-63
2022/08/04 01:02:34;;;;;;;61.20;28.40;;;;;;;23.15;72.48;99026.50;25020;1315;3056412;-62
2022/08/04 01:05:06;;;;;;;60.10;30.30;;;;;;;23.02;72.66;99027.82;25086;1315;3055765;-61
2022/08/04 01:07:53;;;;;;;62.30;30.30;;;;;;;22.62;73.87;99034.98;25050;1313;3026900;-62
2022/08/04 01:10:44;;;;;;;56.00;27.20;;;;;;;22.30;74.57;99034.17;25010;1315;3051768;-64
2022/08/04 01:13:39;;;;;;;40.20;19.30;;;;;;;22.29;74.40;99033.16;25090;1315;3052976;-61
2022/08/04 01:16:11;;;;;;;42.30;21.10;;;;;;;22.83;72.18;99032.44;25016;1315;3050030;-60
2022/08/04 01:18:59;;;;;;;48.10;23.60;;;;;;;23.08;71.25;99041.14;25105;1315;3027088;-61
2022/08/04 01:21:28;;;;;;;58.60;25.50;;;;;;;23.01;70.76;99042.08;25113;1314;3052225;-64
2022/08/04 01:24:03;;;;;;;53.20;25.20;;;;;;;22.74;71.30;99042.16;25102;1315;3026857;-61
2022/08/04 01:26:59;;;;;;;57.00;27.50;;;;;;;22.56;71.52;99044.39;25060;1313;3069860;-62
2022/08/04 01:29:34;;;;;;;57.30;26.50;;;;;;;22.37;71.91;99047.04;25110;1315;3052356;-62
2022/08/04 01:32:05;;;;;;;46.30;21.10;;;;;;;22.24;72.32;99051.16;25101;1315;3052667;-61
2022/08/04 01:34:41;;;;;;;52.90;24.30;;;;;;;22.77;71.05;99052.17;25093;1313;3026912;-61
2022/08/04 01:37:20;;;;;;;60.70;28.30;;;;;;;23.20;69.20;99047.72;25045;1313;3057451;-63
2022/08/04 01:39:55;;;;;;;72.00;32.40;;;;;;;23.16;69.10;99048.65;25063;1315;3052310;-60
2022/08/04 01:42:24;;;;;;;71.60;32.90;;;;;;;22.94;69.49;99052.91;25043;1315;3055755;-63
2022/08/04 01:44:53;;;;;;;87.90;36.00;;;;;;;22.69;70.47;99053.89;25029;1315;3026679;-64
2022/08/04 01:47:22;;;;;;;85.60;37.50;;;;;;;22.48;71.07;99061.45;24964;1317;3026723;-60
2022/08/04 01:49:51;;;;;;;53.90;25.30;;;;;;;22.29;72.45;99059.20;25021;1318;3055410;-61
2022/08/04 01:52:20;;;;;;;59.70;27.80;;;;;;;22.69;71.54;99060.30;24968;1314;3026584;-62
2022/08/04 01:54:49;;;;;;;54.80;27.70;;;;;;;23.09;70.55;99060.20;25048;1315;3052137;-63
2022/08/04 01:57:18;;;;;;;67.20;32.70;;;;;;;23.10;70.35;99058.85;25048;1315;3026575;-61
2022/08/04 01:59:47;;;;;;;60.30;30.20;;;;;;;22.94;70.93;99062.15;25082;1315;3057521;-61
2022/08/04 02:02:16;;;;;;;61.40;32.00;;;;;;;22.74;71.47;99068.08;24976;1315;3026781;-60
2022/08/04 02:04:45;;;;;;;61.10;31.80;;;;;;;22.57;72.03;99073.29;25076;1313;3053720;-61
2022/08/04 02:07:27;;;;;;;46.40;22.30;;;;;;;22.41;72.92;99074.11;25101;1313;3026519;-61
2022/08/04 02:10:07;;;;;;;48.00;25.90;;;;;;;22.85;71.95;99074.70;25031;1315;3052052;-62
2022/08/04 02:12:59;;;;;;;41.90;22.50;;;;;;;23.11;70.60;99072.60;25083;1314;3054054;-59
2022/08/04 02:15:54;;;;;;;45.20;24.20;;;;;;;22.93;71.05;99072.44;25046;1315;3053783;-63
2022/08/04 02:18:27;;;;;;;46.30;23.20;;;;;;;22.60;72.20;99073.11;25052;1315;3070962;-60
2022/08/04 02:20:57;;;;;;;47.90;25.10;;;;;;;22.40;72.57;99072.34;25036;1313;3026768;-60
2022/08/04 02:23:33;;;;;;;42.70;23.10;;;;;;;22.22;73.49;99071.04;25112;1315;3026559;-62
2022/08/04 02:26:15;;;;;;;33.60;18.10;;;;;;;22.12;73.72;99065.38;25041;1313;3055147;-62
2022/08/04 02:29:00;;;;;;;42.40;20.90;;;;;;;22.67;72.29;99064.77;25032;1313;3058817;-61
2022/08/04 02:31:38;;;;;;;37.90;20.90;;;;;;;23.01;70.69;99057.73;25097;1315;3052251;-62
2022/08/04 02:34:08;;;;;;;50.20;21.60;;;;;;;22.96;70.50;99054.84;25098;1315;3053990;-62
2022/08/04 02:36:38;;;;;;;39.70;21.90;;;;;;;22.78;71.02;99058.16;25089;1313;3026286;-60
2022/08/04 02:39:11;;;;;;;41.30;23.20;;;;;;;22.58;71.48;99066.54;25091;1313;3026410;-62
2022/08/04 02:41:40;;;;;;;42.30;22.30;;;;;;;22.42;71.84;99064.02;25017;1313;3027280;-61
2022/08/04 02:44:09;;;;;;;31.90;16.80;;;;;;;22.30;72.33;99058.95;25103;1315;3026926;-65
2022/08/04 02:46:40;;;;;;;39.20;19.80;;;;;;;22.74;71.30;99060.54;25105;1314;3026453;-64
2022/08/04 02:49:09;;;;;;;37.70;20.20;;;;;;;23.12;70.12;99060.92;25127;1315;3026565;-62
2022/08/04 02:51:44;;;;;;;40.90;22.50;;;;;;;23.06;69.83;99063.95;25037;1315;3028467;-61
2022/08/04 02:54:14;;;;;;;46.70;23.60;;;;;;;22.85;70.57;99063.63;25130;1313;3051922;-61
2022/08/04 02:56:44;;;;;;;42.90;24.30;;;;;;;22.61;71.63;99069.97;25053;1315;3026238;-61
2022/08/04 02:59:13;;;;;;;51.40;26.30;;;;;;;22.38;73.30;99072.86;25090;1315;3027008;-61
2022/08/04 03:01:42;;;;;;;38.70;17.90;;;;;;;22.20;74.29;99073.31;25094;1313;3026649;-61
2022/08/04 03:04:26;;;;;;;37.20;20.10;;;;;;;22.65;73.45;99065.70;25083;1314;3052907;-59
2022/08/04 03:07:14;;;;;;;40.80;21.70;;;;;;;22.94;71.89;99062.86;25037;1315;3071165;-61
2022/08/04 03:10:31;;;;;;;42.10;22.40;;;;;;;22.82;72.26;99059.66;25099;1315;3052214;-62
2022/08/04 03:13:07;;;;;;;45.80;23.80;;;;;;;22.50;73.29;99062.36;25121;1315;3052820;-60
2022/08/04 03:15:47;;;;;;;45.30;25.00;;;;;;;22.28;73.94;99054.56;25058;1313;3053804;-61
2022/08/04 03:18:29;;;;;;;32.60;18.40;;;;;;;22.14;74.96;99060.96;25077;1315;3059165;-62
2022/08/04 03:21:40;;;;;;;42.90;21.50;;;;;;;22.61;73.99;99054.06;25022;1315;3052612;-61
2022/08/04 03:24:36;;;;;;;36.90;22.00;;;;;;;22.82;73.45;99048.55;25110;1314;3051549;-62
2022/08/04 03:27:17;;;;;;;42.80;22.70;;;;;;;22.78;72.69;99049.20;25041;1314;3051407;-60
2022/08/04 03:30:06;;;;;;;46.60;24.00;;;;;;;22.67;74.10;99048.73;25089;1314;3071864;-62
2022/08/04 03:33:08;;;;;;;54.20;24.80;;;;;;;22.39;75.66;99052.14;25120;1313;3049025;-62
2022/08/04 03:35:58;;;;;;;42.30;19.60;;;;;;;22.20;77.28;99053.30;25128;1315;3051283;-62
2022/08/04 03:38:48;;;;;;;49.30;23.00;;;;;;;22.79;74.73;99049.99;25056;1314;3055208;-61
2022/08/04 03:41:55;;;;;;;48.20;25.10;;;;;;;23.01;73.65;99047.79;25080;1313;3059036;-59
2022/08/04 03:44:55;;;;;;;51.80;26.60;;;;;;;22.82;73.69;99054.61;25032;1315;3051979;-61
2022/08/04 03:47:32;;;;;;;53.10;26.00;;;;;;;22.62;74.13;99063.80;25056;1313;3056174;-65
2022/08/04 03:50:04;;;;;;;47.30;24.90;;;;;;;22.43;75.05;99063.08;25141;1315;3052450;-62
2022/08/04 03:55:39;;;;;;;43.80;24.70;;;;;;;22.87;74.41;99063.13;25033;1315;3051567;-62
2022/08/04 03:58:33;;;;;;;50.10;24.50;;;;;;;23.13;73.20;99062.08;25063;1315;3026881;-64
2022/08/04 04:01:19;;;;;;;46.10;25.30;;;;;;;22.99;73.19;99059.80;25076;1315;3055328;-60
2022/08/04 04:04:01;;;;;;;57.10;29.80;;;;;;;22.79;74.15;99062.71;25058;1315;3058678;-60
2022/08/04 04:07:03;;;;;;;59.30;28.50;;;;;;;22.59;74.73;99059.17;25142;1315;3049750;-61
2022/08/04 04:10:10;;;;;;;43.00;22.90;;;;;;;22.42;75.98;99060.89;25135;1315;3053400;-62
2022/08/04 04:12:46;;;;;;;47.60;27.00;;;;;;;22.94;73.77;99058.23;25022;1315;3055217;-63
2022/08/04 04:15:35;;;;;;;51.20;28.70;;;;;;;23.04;73.08;99057.73;25074;1315;3071313;-62
2022/08/04 04:18:38;;;;;;;55.00;28.90;;;;;;;22.93;73.37;99063.17;25071;1313;3049483;-62
2022/08/04 04:21:42;;;;;;;56.10;31.20;;;;;;;22.69;74.09;99067.83;25098;1315;3054810;-60
2022/08/04 04:24:36;;;;;;;53.80;29.90;;;;;;;22.43;75.05;99066.23;25050;1315;3055611;-60
2022/08/04 04:27:24;;;;;;;41.30;23.10;;;;;;;22.28;75.82;99062.84;25103;1315;3059257;-60
2022/08/04 04:30:12;;;;;;;48.20;26.90;;;;;;;22.78;74.48;99057.96;25079;1315;3051862;-63
2022/08/04 04:32:53;;;;;;;47.00;27.60;;;;;;;22.93;73.66;99061.39;25092;1315;3054348;-64
2022/08/04 04:35:32;;;;;;;66.40;35.40;;;;;;;22.90;74.29;99061.40;25096;1315;3054386;-61
2022/08/04 04:38:13;;;;;;;53.70;31.20;;;;;;;22.76;75.56;99061.60;25062;1315;3072001;-61
2022/08/04 04:40:54;;;;;;;58.20;29.90;;;;;;;22.63;76.20;99061.48;25077;1315;3052846;-63
2022/08/04 04:43:34;;;;;;;37.70;20.50;;;;;;;22.55;76.68;99057.81;25066;1315;3054637;-62
2022/08/04 04:46:11;;;;;;;40.10;22.60;;;;;;;23.13;74.85;99051.16;25099;1315;3053445;-61
2022/08/04 04:49:07;;;;;;;43.20;24.10;;;;;;;23.50;72.76;99053.73;25049;1315;3057416;-61
2022/08/04 04:51:43;;;;;;;37.60;23.10;;;;;;;23.51;71.65;99054.52;25085;1315;3052853;-62
2022/08/04 04:54:20;;;;;;;41.20;22.30;;;;;;;23.36;72.20;99060.63;25060;1315;3054066;-62
2022/08/04 04:56:52;;;;;;;45.90;25.10;;;;;;;23.18;73.25;99061.95;25057;1313;3051955;-63
2022/08/04 04:59:21;;;;;;;36.40;20.30;;;;;;;23.05;74.44;99067.47;25092;1315;3026512;-63
2022/08/04 05:02:21;;;;;;;48.80;26.00;;;;;;;23.46;73.86;99071.33;25060;1318;3026641;-60
2022/08/04 05:05:05;;;;;;;52.10;27.30;;;;;;;23.79;72.46;99080.23;25054;1315;3054968;-63
2022/08/04 05:08:17;;;;;;;49.00;28.10;;;;;;;23.69;72.31;99080.39;25087;1315;3052269;-62
2022/08/04 05:10:50;;;;;;;53.60;27.70;;;;;;;23.45;73.55;99085.42;25108;1315;3057357;-63
2022/08/04 05:13:19;;;;;;;50.80;26.90;;;;;;;23.30;74.26;99092.17;25095;1313;3026646;-62
2022/08/04 05:15:49;;;;;;;34.40;20.10;;;;;;;23.19;74.43;99092.56;25043;1315;3026513;-61
2022/08/04 05:18:21;;;;;;;39.80;21.40;;;;;;;23.68;73.03;99095.35;25062;1315;3056764;-59
2022/08/04 05:20:56;;;;;;;39.20;23.30;;;;;;;24.12;70.72;99102.33;25049;1315;3026608;-63
2022/08/04 05:23:26;;;;;;;40.30;24.30;;;;;;;24.06;71.05;99102.47;25123;1315;3053460;-62
2022/08/04 05:26:00;;;;;;;47.40;25.50;;;;;;;23.87;71.90;99102.15;25053;1315;3026766;-65
2022/08/04 05:28:32;;;;;;;44.20;25.70;;;;;;;23.72;72.40;99105.20;25098;1315;3070708;-62
2022/08/04 05:31:05;;;;;;;37.80;23.90;;;;;;;23.56;72.93;99102.80;25038;1315;3028677;-61
2022/08/04 05:33:49;;;;;;;34.80;18.80;;;;;;;23.47;73.34;99111.26;25103;1315;3026742;-63
2022/08/04 05:36:59;;;;;;;39.70;21.40;;;;;;;24.11;71.37;99110.80;25031;1315;3055056;-59
2022/08/04 05:39:38;;;;;;;38.50;23.10;;;;;;;24.40;70.11;99117.15;25041;1315;3061256;-63
2022/08/04 05:42:33;;;;;;;41.90;25.20;;;;;;;24.32;70.57;99116.16;25014;1315;3052780;-61
2022/08/04 05:45:03;;;;;;;43.20;25.10;;;;;;;24.16;70.79;99118.08;25066;1315;3026493;-62
2022/08/04 05:47:32;;;;;;;46.70;25.90;;;;;;;23.97;71.51;99116.70;25028;1315;3026473;-65
2022/08/04 05:50:02;;;;;;;45.40;24.20;;;;;;;23.87;71.96;99115.86;25042;1314;3026182;-64
2022/08/04 05:52:31;;;;;;;29.90;17.90;;;;;;;23.82;72.38;99119.01;25105;1315;3052707;-64
2022/08/04 05:55:00;;;;;;;34.50;19.30;;;;;;;24.33;71.13;99116.05;24997;1315;3026238;-63
2022/08/04 05:57:29;;;;;;;35.90;19.90;;;;;;;24.74;68.77;99118.14;25079;1315;3051306;-62
2022/08/04 05:59:59;;;;;;;39.30;20.70;;;;;;;24.73;67.99;99119.46;25075;1314;3026952;-64
2022/08/04 06:02:28;;;;;;;33.90;21.70;;;;;;;24.55;68.78;99124.98;25061;1315;3059320;-61
2022/08/04 06:04:57;;;;;;;37.20;23.20;;;;;;;24.38;69.41;99128.70;25061;1315;3026337;-63
2022/08/04 06:07:26;;;;;;;40.40;23.30;;;;;;;24.26;70.11;99130.69;24961;1314;3054570;-62
2022/08/04 06:09:55;;;;;;;43.60;25.00;;;;;;;24.18;70.41;99128.38;25063;1313;3026807;-62
2022/08/04 06:12:26;;;;;;;29.30;18.10;;;;;;;24.21;69.88;99124.14;25069;1315;3026470;-61
2022/08/04 06:14:56;;;;;;;34.50;20.80;;;;;;;24.70;68.75;99126.34;25066;1315;3052869;-64
2022/08/04 06:17:29;;;;;;;38.80;20.60;;;;;;;25.15;67.01;99123.02;25044;1313;3026750;-63
2022/08/04 06:19:59;;;;;;;38.60;23.10;;;;;;;25.19;66.87;99124.40;25113;1315;3054556;-63
2022/08/04 06:22:29;;;;;;;39.10;24.20;;;;;;;25.04;66.80;99123.80;25098;1315;3026530;-63
2022/08/04 06:24:58;;;;;;;43.40;26.50;;;;;;;24.88;67.20;99122.61;25031;1315;3026573;-61
2022/08/04 06:27:27;;;;;;;46.90;27.90;;;;;;;24.75;68.24;99122.87;25074;1315;3055168;-62
2022/08/04 06:29:58;;;;;;;46.30;27.70;;;;;;;24.67;67.74;99127.02;24992;1317;3027226;-62
2022/08/04 06:32:35;;;;;;;46.50;27.00;;;;;;;24.58;67.82;99125.40;25124;1315;3026498;-62
2022/08/04 06:35:05;;;;;;;35.50;21.30;;;;;;;24.54;68.60;99124.70;25031;1315;3049081;-61
2022/08/04 06:37:35;;;;;;;46.60;25.10;;;;;;;25.13;66.64;99122.83;25055;1314;3027008;-62
2022/08/04 06:40:05;;;;;;;51.20;28.60;;;;;;;25.59;65.39;99124.05;24969;1317;3027252;-62
2022/08/04 06:42:34;;;;;;;51.20;28.60;;;;;;;25.63;64.41;99126.35;24950;1318;3026601;-62
2022/08/04 06:45:04;;;;;;;40.90;25.50;;;;;;;25.53;64.98;99127.41;24973;1317;3026208;-63
2022/08/04 06:47:33;;;;;;;44.40;25.90;;;;;;;25.49;64.70;99125.66;25053;1317;3053534;-64
2022/08/04 06:50:04;;;;;;;48.20;28.40;;;;;;;25.38;64.42;99125.91;24945;1315;3026597;-61
2022/08/04 06:52:33;;;;;;;49.40;30.10;;;;;;;25.34;64.86;99125.19;25083;1315;3052600;-62
2022/08/04 06:55:02;;;;;;;56.60;30.90;;;;;;;25.30;64.94;99122.84;24998;1315;3028696;-62
2022/08/04 06:57:32;;;;;;;49.80;28.60;;;;;;;25.30;64.82;99123.73;25077;1315;3051773;-61
2022/08/04 07:00:10;;;;;;;58.00;33.40;;;;;;;25.34;64.62;99124.20;25033;1315;3026004;-61
2022/08/04 07:02:48;;;;;;;59.10;31.80;;;;;;;25.49;64.60;99119.89;25110;1315;3052119;-60
2022/08/04 07:05:17;;;;;;;40.70;22.60;;;;;;;25.60;64.05;99118.67;25081;1315;3069716;-60
2022/08/04 07:07:46;;;;;;;40.30;23.70;;;;;;;26.22;60.97;99119.58;25106;1315;3026355;-63
2022/08/04 07:10:15;;;;;;;44.60;24.60;;;;;;;26.64;60.46;99115.98;25004;1315;3026585;-62
2022/08/04 07:12:45;;;;;;;40.10;23.80;;;;;;;26.71;59.67;99112.98;25141;1315;3068675;-62
2022/08/04 07:15:14;;;;;;;46.80;28.70;;;;;;;26.57;60.56;99114.67;25061;1315;3026487;-61
2022/08/04 07:17:43;;;;;;;52.90;29.80;;;;;;;26.47;61.41;99121.54;25062;1318;3051471;-63
2022/08/04 07:20:12;;;;;;;52.10;30.50;;;;;;;26.27;61.66;99117.74;25010;1315;3026799;-63
2022/08/04 07:22:42;;;;;;;50.70;30.80;;;;;;;26.09;61.85;99110.07;25088;1315;3026878;-63
2022/08/04 07:25:11;;;;;;;48.40;28.80;;;;;;;26.12;62.05;99113.94;25135;1315;3053810;-64
2022/08/04 07:27:41;;;;;;;48.50;29.00;;;;;;;26.04;62.61;99112.66;25092;1315;3031493;-59
2022/08/04 07:30:11;;;;;;;48.00;26.50;;;;;;;25.88;62.47;99114.45;25050;1315;3026972;-63
2022/08/04 07:32:41;;;;;;;37.60;24.30;;;;;;;25.91;61.33;99115.51;25050;1315;3026839;-62
2022/08/04 07:35:12;;;;;;;40.80;26.20;;;;;;;25.98;62.66;99118.75;25080;1317;3026578;-63
2022/08/04 07:37:41;;;;;;;39.00;24.80;;;;;;;26.02;62.02;99120.67;25139;1315;3027208;-63
2022/08/04 07:40:10;;;;;;;40.20;24.20;;;;;;;25.96;61.22;99118.11;25050;1315;3026879;-64
2022/08/04 07:42:39;;;;;;;39.10;23.30;;;;;;;26.02;60.76;99119.89;25092;1318;3054370;-61
2022/08/04 07:45:09;;;;;;;47.30;25.60;;;;;;;26.07;61.22;99118.69;24923;1317;3026498;-62
2022/08/04 07:47:39;;;;;;;50.30;30.50;;;;;;;26.08;61.96;99120.71;25013;1317;3051731;-63
2022/08/04 07:50:09;;;;;;;54.50;31.50;;;;;;;26.04;62.28;99120.45;25035;1318;3026690;-62
2022/08/04 07:52:38;;;;;;;58.70;35.20;;;;;;;25.99;62.69;99118.14;25057;1318;3027297;-63
2022/08/04 07:55:07;;;;;;;58.50;34.90;;;;;;;25.97;63.04;99121.48;24999;1318;3026594;-62
2022/08/04 07:57:36;;;;;;;51.80;32.00;;;;;;;25.99;63.15;99123.56;25001;1315;3055051;-60
2022/08/04 08:00:06;;;;;;;55.20;31.60;;;;;;;25.92;63.23;99125.31;25102;1315;3026266;-60
2022/08/04 08:02:41;;;;;;;54.70;30.30;;;;;;;25.93;62.57;99125.30;25097;1315;3054924;-62
2022/08/04 08:05:12;;;;;;;59.00;33.50;;;;;;;25.85;63.02;99125.91;25026;1315;3026365;-61
2022/08/04 08:07:49;;;;;;;63.90;36.10;;;;;;;25.86;62.70;99128.64;25071;1315;3026961;-60
2022/08/04 08:10:18;;;;;;;68.00;38.60;;;;;;;25.83;62.82;99131.45;25041;1315;3049552;-62
2022/08/04 08:13:12;;;;;;;71.10;37.10;;;;;;;25.73;63.85;99133.56;25013;1315;3052398;-63
2022/08/04 08:15:45;;;;;;;64.50;35.60;;;;;;;25.72;63.95;99136.56;24915;1315;3028384;-62
2022/08/04 08:18:14;;;;;;;43.80;24.40;;;;;;;25.73;64.42;99138.14;25073;1315;3026751;-60
2022/08/04 08:20:45;;;;;;;52.40;26.80;;;;;;;26.28;62.78;99142.33;25039;1315;3026672;-61
2022/08/04 08:23:14;;;;;;;50.20;26.50;;;;;;;26.73;61.08;99136.05;25038;1315;3053374;-63
2022/08/04 08:25:42;;;;;;;51.20;29.00;;;;;;;26.72;60.54;99139.49;25084;1315;3026327;-63
2022/08/04 08:28:11;;;;;;;48.70;27.10;;;;;;;26.74;60.18;99134.77;24646;1315;3556016;-62
2022/08/04 08:30:40;;;;;;;49.50;28.50;;;;;;;26.61;60.14;99142.78;24998;1315;3026491;-60
2022/08/04 08:33:11;;;;;;;48.40;28.00;;;;;;;26.41;61.03;99144.77;25079;1315;3049425;-60
2022/08/04 08:36:09;;;;;;;47.00;28.10;;;;;;;26.23;61.49;99142.46;25065;1315;3026876;-62
2022/08/04 08:38:59;;;;;;;47.00;28.40;;;;;;;25.99;62.20;99136.95;25019;1315;3054456;-62
2022/08/04 08:41:46;;;;;;;47.10;26.50;;;;;;;25.74;62.65;99141.09;24982;1315;3071698;-61
2022/08/04 08:44:53;;;;;;;47.70;27.30;;;;;;;25.59;63.33;99146.60;25084;1315;3051811;-63
2022/08/04 08:48:09;;;;;;;48.60;27.20;;;;;;;25.40;64.40;99149.88;25008;1315;3055280;-62
2022/08/04 08:51:13;;;;;;;43.20;27.20;;;;;;;25.26;64.96;99153.86;24845;1323;3055510;-63
2022/08/04 08:54:04;;;;;;;47.00;28.40;;;;;;;25.12;65.76;99160.46;25001;1315;3059107;-59
2022/08/04 08:56:42;;;;;;;48.70;25.20;;;;;;;24.97;65.97;99156.82;25099;1315;3049810;-61
2022/08/04 08:59:42;;;;;;;36.60;20.80;;;;;;;24.88;66.33;99155.38;25125;1315;3052166;-61
2022/08/04 09:02:40;;;;;;;37.70;23.00;;;;;;;25.59;64.47;99158.26;25081;1315;3055321;-62
2022/08/04 09:05:46;;;;;;;34.50;20.20;;;;;;;25.84;63.66;99155.87;25103;1315;3071196;-62
2022/08/04 09:08:40;;;;;;;38.60;21.40;;;;;;;25.78;63.45;99157.58;25083;1315;3051633;-60
2022/08/04 09:11:14;;;;;;;35.80;22.10;;;;;;;25.60;63.04;99161.00;25089;1315;3053762;-63
2022/08/04 09:13:47;;;;;;;38.80;21.40;;;;;;;25.45;63.60;99160.17;25084;1315;3052622;-61
2022/08/04 09:16:20;;;;;;;30.90;19.00;;;;;;;25.38;63.29;99160.98;25035;1315;3026648;-63
2022/08/04 09:19:08;;;;;;;34.60;20.40;;;;;;;25.26;63.87;99167.84;25111;1315;3026865;-61
2022/08/04 09:21:41;;;;;;;32.80;20.90;;;;;;;25.12;63.99;99168.52;25106;1315;3054249;-61
2022/08/04 09:24:15;;;;;;;35.60;22.20;;;;;;;25.06;64.95;99167.81;25039;1315;3028130;-63
2022/08/04 09:26:59;;;;;;;38.80;20.70;;;;;;;25.04;65.94;99167.42;25014;1315;3068860;-59
2022/08/04 09:29:55;;;;;;;30.40;17.60;;;;;;;24.98;67.11;99164.77;25053;1315;3049427;-61
2022/08/04 09:32:46;;;;;;;36.50;21.20;;;;;;;25.66;65.94;99163.48;25056;1315;3054808;-62
2022/08/04 09:35:25;;;;;;;35.20;21.70;;;;;;;25.95;64.63;99163.45;25093;1315;3052208;-61
2022/08/04 09:38:40;;;;;;;34.20;20.90;;;;;;;25.95;65.50;99164.56;25018;1315;3058410;-60
2022/08/04 09:41:33;;;;;;;37.10;21.90;;;;;;;25.85;65.59;99163.74;24864;1323;3053005;-61
2022/08/04 09:44:13;;;;;;;35.30;20.70;;;;;;;25.78;64.98;99163.30;24996;1318;3056082;-64
2022/08/04 09:46:51;;;;;;;31.90;20.30;;;;;;;25.71;64.67;99166.08;25012;1316;3052887;-60
2022/08/04 09:49:40;;;;;;;34.80;21.20;;;;;;;25.66;65.10;99163.15;25073;1314;3071580;-64
2022/08/04 09:53:52;;;;;;;32.70;21.20;;;;;;;25.88;64.20;99163.85;31401;1321;3026451;-63
2022/08/04 09:56:25;;;;;;;34.90;23.20;;;;;;;26.21;63.36;99161.74;24875;1321;3055611;-64
2022/08/04 09:59:19;;;;;;;33.50;21.10;;;;;;;26.36;61.73;99154.88;24866;1321;3054851;-60
2022/08/04 10:01:52;;;;;;;34.20;21.70;;;;;;;26.22;62.51;99146.89;24843;1321;3058703;-64
2022/08/04 10:04:21;;;;;;;35.90;22.10;;;;;;;26.27;62.56;99151.13;24902;1321;3026301;-64
2022/08/04 10:07:03;;;;;;;35.90;22.10;;;;;;;26.27;61.39;99148.80;24463;1321;3027003;-60
2022/08/04 10:09:50;;;;;;;34.80;24.30;;;;;;;26.56;61.07;99152.52;24903;1321;3059443;-61
2022/08/04 10:12:22;;;;;;;31.20;20.10;;;;;;;26.75;59.75;99153.79;24894;1319;3052424;-63
2022/08/04 10:15:01;;;;;;;38.30;20.80;;;;;;;26.77;60.10;99150.20;24934;1319;3026360;-64
2022/08/04 10:18:24;;;;;;;34.20;20.10;;;;;;;26.92;59.89;99144.95;24933;1319;3050351;-61
2022/08/04 10:21:22;;;;;;;36.20;21.00;;;;;;;27.18;58.54;99144.42;24763;1324;3071151;-62
2022/08/04 10:23:58;;;;;;;33.40;19.90;;;;;;;27.46;58.29;99146.06;25029;1317;3049265;-62
2022/08/04 10:26:32;;;;;;;31.80;20.10;;;;;;;27.77;57.17;99149.63;25001;1317;3052855;-64
2022/08/04 10:29:10;;;;;;;36.90;22.50;;;;;;;28.07;56.10;99150.80;25002;1318;3052996;-61
2022/08/04 10:31:53;;;;;;;34.10;21.90;;;;;;;27.98;55.43;99152.66;24980;1318;3056814;-62
2022/08/04 10:34:25;;;;;;;33.30;20.00;;;;;;;27.97;55.57;99154.73;24970;1318;3052674;-64
2022/08/04 10:37:10;;;;;;;39.00;21.20;;;;;;;28.02;55.87;99156.81;24930;1318;3026579;-63
2022/08/04 10:43:02;;;;;;;35.70;20.20;;;;;;;28.02;54.50;99149.30;24928;1319;3071053;-61
2022/08/04 10:45:45;;;;;;;36.30;19.60;;;;;;;28.11;53.59;99147.94;25027;1318;3051704;-65
2022/08/04 10:48:20;;;;;;;39.90;22.40;;;;;;;28.21;53.45;99147.23;24987;1318;3055388;-63
2022/08/04 10:51:03;;;;;;;42.00;22.00;;;;;;;28.24;53.35;99143.54;25059;1318;3052637;-63
2022/08/04 10:53:32;;;;;;;39.00;19.80;;;;;;;28.21;52.05;99143.02;25022;1314;3058848;-64
2022/08/04 10:56:08;;;;;;;36.70;20.70;;;;;;;28.12;52.79;99142.73;25054;1315;3027296;-65
2022/08/04 10:59:18;;;;;;;34.30;20.10;;;;;;;28.01;53.42;99145.71;25038;1315;3052949;-64
2022/08/04 11:02:20;;;;;;;31.30;19.30;;;;;;;27.91;52.17;99143.80;25127;1314;3058100;-66
2022/08/04 11:05:18;;;;;;;33.90;20.10;;;;;;;27.72;52.54;99144.58;25126;1314;3052529;-66
2022/08/04 11:07:52;;;;;;;34.40;18.90;;;;;;;27.60;52.90;99149.81;25196;1314;3053055;-66
2022/08/04 11:10:25;;;;;;;38.20;21.00;;;;;;;27.67;53.03;99150.48;25101;1315;3026532;-66
2022/08/04 11:13:07;;;;;;;36.00;20.80;;;;;;;27.57;53.49;99150.85;25136;1318;3067756;-65
2022/08/04 11:16:02;;;;;;;34.70;20.40;;;;;;;27.51;53.93;99154.64;25118;1318;3049498;-65
2022/08/04 11:19:07;;;;;;;38.90;21.40;;;;;;;27.48;54.68;99146.68;25149;1315;3054507;-66
2022/08/04 11:22:04;;;;;;;34.50;20.70;;;;;;;27.43;53.42;99144.23;25159;1317;3053730;-66
2022/08/04 11:25:27;;;;;;;34.30;20.10;;;;;;;27.38;53.78;99146.69;25202;1314;3059354;-65
2022/08/04 11:28:03;;;;;;;38.70;22.90;;;;;;;27.40;52.92;99148.40;25071;1315;3049712;-65
2022/08/04 11:30:57;;;;;;;33.40;20.70;;;;;;;27.46;52.60;99148.39;25164;1314;3055712;-65
2022/08/04 11:34:07;;;;;;;32.70;20.20;;;;;;;27.41;52.80;99147.73;25112;1315;3051104;-67
2022/08/04 11:36:55;;;;;;;31.60;19.90;;;;;;;27.41;52.17;99143.79;25095;1314;3071765;-65
2022/08/04 11:40:12;;;;;;;34.80;19.60;;;;;;;27.40;51.78;99144.34;25159;1314;3048147;-66
2022/08/04 11:42:57;;;;;;;28.20;19.30;;;;;;;27.40;52.72;99141.72;25112;1315;3051900;-65
2022/08/04 11:45:33;;;;;;;32.30;20.50;;;;;;;27.38;53.49;99139.31;25127;1315;3055769;-66
2022/08/04 11:48:12;;;;;;;33.70;20.90;;;;;;;27.37;54.18;99131.88;25129;1315;3057798;-66
2022/08/04 11:50:56;;;;;;;36.90;21.20;;;;;;;27.37;54.33;99130.73;25118;1314;3050684;-66
2022/08/04 11:53:33;;;;;;;31.90;20.80;;;;;;;27.37;53.80;99124.41;25136;1315;3053057;-65
2022/08/04 11:56:07;;;;;;;34.30;19.60;;;;;;;27.35;52.67;99121.55;25161;1315;3050910;-66
2022/08/04 11:58:38;;;;;;;32.40;19.50;;;;;;;27.44;52.42;99120.63;25068;1318;3070938;-65
2022/08/04 12:01:18;;;;;;;33.10;19.60;;;;;;;27.53;53.93;99115.38;25171;1315;3027375;-64
2022/08/04 12:04:26;;;;;;;33.70;20.60;;;;;;;27.73;54.06;99113.69;25111;1315;3053627;-65
2022/08/04 12:07:08;;;;;;;32.70;20.10;;;;;;;27.99;53.70;99107.70;25113;1314;3055388;-65